Time;durP1;ratioP1;P1;durP2;ratioP2;P2;SDS_P1;SDS_P2;PMS_P1;PMS_P2;Temp;Humidity;BMP_temperature;BMP_pressure;BME280_temperature;BME280_humidity;BME280_pressure;Samples;Min_cycle;Max_cycle;Signal;HPM_P1;HPM_P2
2022/03/08 00:02:41;;;;;;;3.47;3.17;;;-6.50;1.40;;;-6.17;100.00;95871.73;646022;212;31645;-74
2022/03/08 00:05:25;;;;;;;5.12;3.87;;;-6.70;1.40;;;-6.24;100.00;95882.16;619567;222;31901;-76
2022/03/08 00:08:07;;;;;;;8.20;2.50;;;-6.60;1.40;;;-6.36;100.00;95880.33;610981;222;32101;-75
2022/03/08 00:10:51;;;;;;;5.18;3.17;;;-6.70;1.40;;;-6.42;100.00;95884.66;648596;212;31688;-75
2022/03/08 00:13:34;;;;;;;5.03;2.83;;;-6.80;1.40;;;-6.34;100.00;95879.11;647333;214;31769;-76
2022/03/08 00:16:19;;;;;;;3.60;2.55;;;-6.80;1.40;;;-6.43;100.00;95872.81;647149;216;31577;-75
2022/03/08 00:19:01;;;;;;;3.78;2.85;;;-6.70;1.40;;;-6.41;100.00;95875.52;646794;216;31656;-75
2022/03/08 00:21:43;;;;;;;3.00;2.30;;;-6.70;1.40;;;-6.50;100.00;95874.34;647514;212;42662;-75
2022/03/08 00:24:25;;;;;;;4.87;2.45;;;-6.80;1.40;;;-6.52;100.00;95872.77;646790;216;31636;-76
2022/03/08 00:27:07;;;;;;;3.83;1.77;;;-6.90;1.40;;;-6.56;100.00;95873.70;620348;222;31962;-77
2022/03/08 00:29:48;;;;;;;4.50;2.72;;;-6.90;1.40;;;-6.58;100.00;95870.51;648502;216;32117;-76
2022/03/08 00:32:36;;;;;;;5.20;2.30;;;-7.00;1.40;;;-6.46;100.00;95862.41;647140;216;31765;-75
2022/03/08 00:35:52;;;;;;;10.60;2.30;;;-6.90;1.40;;;-6.59;100.00;95860.09;648496;216;31593;-75
2022/03/08 00:38:42;;;;;;;6.60;2.78;;;-7.00;1.40;;;-6.59;100.00;95856.17;646439;216;31581;-75
2022/03/08 00:41:26;;;;;;;6.90;2.53;;;-6.90;1.40;;;-6.52;100.00;95854.74;619629;222;32090;-76
2022/03/08 00:44:07;;;;;;;2.10;1.30;;;-6.90;1.40;;;-6.58;100.00;95850.64;648427;212;31769;-76
2022/03/08 00:46:49;;;;;;;4.50;2.50;;;-7.00;1.40;;;-6.67;100.00;95853.27;647948;216;31616;-76
2022/03/08 00:49:32;;;;;;;4.10;2.58;;;-7.00;1.40;;;-6.74;100.00;95852.76;620043;226;32203;-75
2022/03/08 00:52:14;;;;;;;3.05;1.77;;;-7.20;1.40;;;-6.95;100.00;95850.99;647868;216;31538;-75
2022/03/08 00:55:01;;;;;;;6.30;1.98;;;-7.20;1.40;;;-6.96;100.00;95855.53;645669;216;31656;-73
2022/03/08 00:57:45;;;;;;;4.65;2.50;;;-7.20;1.40;;;-6.99;100.00;95856.71;647037;216;31522;-76
2022/03/08 01:00:27;;;;;;;4.15;2.10;;;-7.20;1.40;;;-6.88;100.00;95855.92;647375;212;31537;-76
2022/03/08 01:03:24;;;;;;;2.78;1.70;;;-7.30;1.40;;;-6.87;100.00;95853.91;646162;214;31731;-73
2022/03/08 01:06:08;;;;;;;2.15;1.95;;;-7.30;1.40;;;-7.04;100.00;95845.85;647282;216;31598;-76
2022/03/08 01:08:59;;;;;;;4.57;1.77;;;-7.40;1.40;;;-7.03;100.00;95844.66;646198;216;31617;-74
2022/03/08 01:11:42;;;;;;;4.32;2.60;;;-7.40;1.40;;;-7.14;100.00;95847.30;646796;212;31556;-76
2022/03/08 01:14:26;;;;;;;5.60;2.70;;;-7.40;1.40;;;-7.18;100.00;95840.24;647080;216;31545;-77
2022/03/08 01:17:14;;;;;;;7.10;2.30;;;-7.60;1.40;;;-7.15;100.00;95844.20;646327;216;31593;-74
2022/03/08 01:20:03;;;;;;;4.55;1.70;;;-7.50;1.40;;;-6.99;100.00;95843.55;631761;222;31875;-76
2022/03/08 01:22:46;;;;;;;3.30;1.80;;;-7.30;1.40;;;-6.96;100.00;95840.05;648151;212;31565;-76
2022/03/08 01:25:27;;;;;;;1.75;1.65;;;-7.30;1.40;;;-7.07;100.00;95836.75;647354;212;31531;-75
2022/03/08 01:28:18;;;;;;;3.05;1.67;;;-7.30;1.40;;;-7.09;100.00;95831.99;647118;216;31626;-73
2022/03/08 01:31:06;;;;;;;4.95;2.12;;;-7.40;1.40;;;-7.10;100.00;95831.06;647901;212;31787;-76
2022/03/08 01:35:51;;;;;;;1.87;1.77;;;-7.60;1.40;;;-7.26;100.00;95825.77;647660;212;32000;-75
2022/03/08 01:38:33;;;;;;;3.90;2.17;;;-7.60;1.40;;;-7.31;100.00;95829.19;649238;216;31507;-75
2022/03/08 01:41:21;;;;;;;3.60;2.45;;;-7.50;1.40;;;-7.31;100.00;95823.18;648123;216;31574;-75
2022/03/08 01:44:03;;;;;;;3.55;2.35;;;-7.50;1.40;;;-7.16;100.00;95821.47;648577;216;31601;-75
2022/03/08 01:46:52;;;;;;;3.23;2.10;;;-7.40;1.40;;;-7.20;100.00;95822.47;624271;218;31898;-75
2022/03/08 01:49:40;;;;;;;2.30;2.10;;;-7.40;1.40;;;-7.12;100.00;95822.48;631558;221;31879;-74
2022/03/08 01:52:22;;;;;;;3.50;2.20;;;-7.40;1.40;;;-7.25;100.00;95821.63;619687;226;31936;-75
2022/03/08 01:55:11;;;;;;;2.00;1.83;;;-7.50;1.40;;;-7.24;100.00;95822.75;647852;212;31993;-75
2022/03/08 01:58:02;;;;;;;4.10;1.85;;;-7.60;1.40;;;-7.29;100.00;95826.55;649179;213;31567;-74
2022/03/08 02:01:03;;;;;;;4.00;2.00;;;-7.50;1.40;;;-7.33;100.00;95818.16;621910;222;31878;-75
2022/03/08 02:03:58;;;;;;;2.60;2.35;;;-7.50;1.40;;;-7.36;100.00;95817.44;650216;212;31570;-76
2022/03/08 02:06:49;;;;;;;3.97;2.58;;;-7.40;1.40;;;-7.22;100.00;95815.22;643942;212;31640;-76
2022/03/08 02:09:32;;;;;;;1.27;1.15;;;-7.30;1.40;;;-7.21;100.00;95810.20;620861;226;32266;-76
2022/03/08 02:12:19;;;;;;;2.80;1.65;;;-7.40;1.40;;;-7.23;100.00;95813.56;647288;216;31632;-74
2022/03/08 02:15:16;;;;;;;2.90;2.70;;;-7.60;1.40;;;-7.25;100.00;95807.47;646512;216;31620;-74
2022/03/08 02:18:02;;;;;;;5.70;2.12;;;-7.70;1.40;;;-7.42;100.00;95807.42;621653;222;31940;-75
2022/03/08 02:20:44;;;;;;;6.03;2.95;;;-7.80;1.40;;;-7.54;100.00;95810.52;620374;226;32456;-76
2022/03/08 02:23:32;;;;;;;4.93;1.60;;;-7.80;1.40;;;-7.52;100.00;95804.04;647117;216;31675;-74
2022/03/08 02:26:21;;;;;;;5.65;2.30;;;-7.90;1.40;;;-7.75;100.00;95800.73;649399;212;32135;-76
2022/03/08 02:29:03;;;;;;;8.30;2.10;;;-8.10;1.40;;;-7.89;100.00;95793.39;648812;216;32090;-77
2022/03/08 02:31:47;;;;;;;3.10;1.40;;;-8.30;1.40;;;-7.89;100.00;95790.84;647155;212;31585;-76
2022/03/08 02:35:50;;;;;;;2.42;1.80;;;-8.20;1.40;;;-7.76;100.00;95782.78;645872;212;42205;-74
2022/03/08 02:38:43;;;;;;;2.70;1.30;;;-8.20;1.40;;;-7.74;100.00;95784.98;623615;222;31872;-75
2022/03/08 02:41:27;;;;;;;2.80;1.67;;;-8.00;1.40;;;-7.55;100.00;95778.49;646166;216;32136;-72
2022/03/08 02:44:08;;;;;;;3.70;2.03;;;-7.90;1.40;;;-7.63;100.00;95780.21;647022;216;31699;-74
2022/03/08 02:46:50;;;;;;;6.10;3.10;;;-7.90;1.40;;;-7.76;100.00;95779.56;645730;216;31570;-73
2022/03/08 02:49:32;;;;;;;4.25;2.33;;;-8.10;1.40;;;-7.75;100.00;95782.51;619092;226;31941;-74
2022/03/08 02:52:13;;;;;;;2.70;2.00;;;-8.10;1.40;;;-7.66;100.00;95781.91;647018;216;31577;-74
2022/03/08 02:54:55;;;;;;;4.30;2.00;;;-8.10;1.40;;;-7.78;100.00;95784.33;619109;226;32461;-75
2022/03/08 02:57:37;;;;;;;1.70;1.45;;;-8.20;1.40;;;-7.83;100.00;95781.78;647048;216;31961;-75
2022/03/08 03:00:19;;;;;;;2.25;1.58;;;-8.00;1.40;;;-7.83;100.00;95783.45;620425;226;31983;-74
2022/03/08 03:03:06;;;;;;;5.47;2.15;;;-8.10;1.40;;;-7.85;100.00;95779.30;648181;216;31653;-78
2022/03/08 03:05:54;;;;;;;5.35;2.75;;;-8.20;1.40;;;-7.76;100.00;95778.52;646252;212;31582;-74
2022/03/08 03:08:41;;;;;;;1.40;1.30;;;-8.10;1.40;;;-7.71;100.00;95766.13;620298;226;31872;-76
2022/03/08 03:11:23;;;;;;;3.00;2.20;;;-8.00;1.40;;;-7.72;100.00;95767.11;649266;216;31563;-76
2022/03/08 03:14:05;;;;;;;4.90;2.55;;;-8.00;1.40;;;-7.68;100.00;95764.55;647523;216;31696;-76
2022/03/08 03:16:53;;;;;;;1.70;1.60;;;-7.80;1.40;;;-7.61;100.00;95769.05;645920;212;31658;-75
2022/03/08 03:19:41;;;;;;;3.92;1.80;;;-7.80;1.40;;;-7.68;100.00;95764.63;647643;216;43023;-76
2022/03/08 03:22:23;;;;;;;5.00;1.70;;;-8.00;1.40;;;-7.78;100.00;95767.12;648403;212;31647;-76
2022/03/08 03:25:08;;;;;;;6.60;2.30;;;-8.10;1.40;;;-7.70;100.00;95762.20;647862;216;31578;-75
2022/03/08 03:27:52;;;;;;;3.75;2.75;;;-7.90;1.40;;;-7.68;100.00;95763.38;646116;216;31530;-75
2022/03/08 03:30:40;;;;;;;1.90;1.50;;;-8.00;1.40;;;-7.77;100.00;95756.47;647843;216;31597;-75
2022/03/08 03:35:57;;;;;;;1.60;1.40;;;-8.20;1.40;;;-7.92;100.00;95761.35;645889;216;42794;-75
2022/03/08 03:38:44;;;;;;;6.03;2.60;;;-8.20;1.40;;;-8.00;100.00;95762.63;647627;212;31552;-75
2022/03/08 03:41:26;;;;;;;2.20;1.42;;;-8.30;1.40;;;-8.01;100.00;95761.59;647500;216;31594;-75
2022/03/08 03:44:08;;;;;;;3.55;2.15;;;-8.40;1.40;;;-8.03;100.00;95763.41;647385;216;31559;-76
2022/03/08 03:46:50;;;;;;;4.80;2.20;;;-8.30;1.40;;;-8.02;100.00;95758.56;647356;216;31540;-76
2022/03/08 03:49:37;;;;;;;1.85;1.62;;;-8.30;1.40;;;-7.89;100.00;95757.70;646145;216;31570;-75
2022/03/08 03:52:25;;;;;;;3.90;1.62;;;-8.20;1.40;;;-7.98;100.00;95769.12;647870;212;42829;-76
2022/03/08 03:55:13;;;;;;;2.08;1.40;;;-8.30;1.40;;;-7.95;100.00;95768.96;646931;216;31676;-74
2022/03/08 03:57:54;;;;;;;4.90;2.30;;;-8.30;1.40;;;-7.98;100.00;95767.31;647130;216;31676;-74
2022/03/08 04:00:37;;;;;;;2.55;1.60;;;-8.20;1.40;;;-7.82;100.00;95769.83;646063;216;32107;-75
2022/03/08 04:03:24;;;;;;;4.90;2.97;;;-8.00;1.40;;;-7.76;100.00;95765.20;647369;216;31701;-76
2022/03/08 04:06:07;;;;;;;2.78;1.55;;;-8.10;1.40;;;-7.77;100.00;95762.00;647789;216;42189;-76
2022/03/08 04:08:54;;;;;;;2.40;2.20;;;-8.10;1.40;;;-7.81;100.00;95761.64;647462;216;31601;-73
2022/03/08 04:11:42;;;;;;;1.50;1.30;;;-8.20;1.40;;;-7.90;100.00;95766.75;648318;216;31569;-75
2022/03/08 04:14:30;;;;;;;6.28;1.90;;;-8.30;1.40;;;-7.79;100.00;95765.89;646490;212;31637;-73
2022/03/08 04:17:11;;;;;;;2.90;2.30;;;-8.20;1.40;;;-7.95;100.00;95772.14;647241;216;43351;-74
2022/03/08 04:19:55;;;;;;;3.45;1.40;;;-8.20;1.40;;;-7.99;100.00;95771.41;647158;216;31583;-76
2022/03/08 04:22:37;;;;;;;2.00;1.40;;;-8.20;1.40;;;-8.02;100.00;95772.85;647160;216;31561;-76
2022/03/08 04:25:18;;;;;;;3.05;1.45;;;-8.20;1.40;;;-8.01;100.00;95778.95;620241;222;32447;-75
2022/03/08 04:28:05;;;;;;;1.80;1.05;;;-8.20;1.40;;;-7.99;100.00;95779.64;647448;216;31544;-75
2022/03/08 04:30:50;;;;;;;3.95;1.70;;;-8.20;1.40;;;-7.90;100.00;95779.75;619874;226;32337;-75
2022/03/08 04:35:54;;;;;;;4.95;2.78;;;-8.10;1.40;;;-7.67;100.00;95773.31;648987;214;31622;-75
2022/03/08 04:38:35;;;;;;;5.07;2.87;;;-7.90;1.40;;;-7.47;100.00;95775.55;647939;212;32145;-75
2022/03/08 04:41:17;;;;;;;1.50;1.20;;;-7.70;1.40;;;-7.37;100.00;95772.45;644378;215;32044;-75
2022/03/08 04:44:05;;;;;;;2.58;2.00;;;-7.50;1.40;;;-7.46;100.00;95767.71;646956;216;31641;-76
2022/03/08 04:46:53;;;;;;;4.40;2.03;;;-7.70;1.40;;;-7.58;100.00;95771.51;647511;216;31577;-75
2022/03/08 04:49:35;;;;;;;4.87;2.53;;;-7.90;1.40;;;-7.67;100.00;95766.84;620227;226;31938;-75
2022/03/08 04:52:20;;;;;;;3.60;1.50;;;-7.90;1.40;;;-7.67;100.00;95767.66;647119;212;31571;-76
2022/03/08 04:55:09;;;;;;;5.25;2.50;;;-8.00;1.40;;;-7.68;100.00;95767.96;648304;212;31559;-75
2022/03/08 04:58:04;;;;;;;2.43;1.83;;;-8.00;1.40;;;-7.71;100.00;95767.14;629679;223;31658;-75
2022/03/08 05:00:52;;;;;;;10.30;2.00;;;-8.10;1.40;;;-7.70;100.00;95767.81;630579;217;32369;-74
2022/03/08 05:03:34;;;;;;;6.30;2.47;;;-8.10;1.40;;;-7.71;100.00;95761.38;647401;216;31628;-74
2022/03/08 05:06:15;;;;;;;2.75;2.25;;;-8.10;1.40;;;-7.78;100.00;95765.62;646771;216;31553;-74
2022/03/08 05:09:03;;;;;;;13.80;2.10;;;-8.10;1.40;;;-7.80;100.00;95764.39;621593;225;31919;-77
2022/03/08 05:11:53;;;;;;;2.60;1.42;;;-8.20;1.40;;;-7.75;100.00;95763.31;647343;216;31551;-75
2022/03/08 05:14:39;;;;;;;4.60;2.78;;;-7.90;1.40;;;-7.69;100.00;95762.05;647197;212;42323;-74
2022/03/08 05:17:41;;;;;;;11.93;2.05;;;-7.90;1.40;;;-7.68;100.00;95758.78;648317;216;31546;-75
2022/03/08 05:20:30;;;;;;;1.90;1.58;;;-7.80;1.40;;;-7.50;100.00;95757.09;646116;212;32325;-74
2022/03/08 05:23:11;;;;;;;3.90;2.40;;;-7.80;1.40;;;-7.45;100.00;95754.48;618365;226;32374;-75
2022/03/08 05:26:01;;;;;;;3.37;2.20;;;-7.90;1.40;;;-7.55;100.00;95762.00;651042;212;31547;-75
2022/03/08 05:28:48;;;;;;;4.32;2.35;;;-8.00;1.40;;;-7.73;100.00;95759.67;631592;221;31693;-74
2022/03/08 05:35:54;;;;;;;2.70;2.00;;;-8.20;1.40;;;-7.95;100.00;95755.61;647781;216;31689;-75
2022/03/08 05:38:37;;;;;;;1.80;1.55;;;-8.30;1.40;;;-7.98;100.00;95755.07;647697;212;31595;-75
2022/03/08 05:41:21;;;;;;;2.55;2.42;;;-8.30;1.40;;;-7.91;100.00;95748.80;620729;222;31870;-75
2022/03/08 05:44:03;;;;;;;2.20;1.00;;;-8.20;1.40;;;-7.91;100.00;95753.47;621080;222;31863;-75
2022/03/08 05:46:46;;;;;;;5.62;1.95;;;-8.20;1.40;;;-7.78;100.00;95749.77;619848;226;32017;-75
2022/03/08 05:49:36;;;;;;;2.58;1.70;;;-7.90;1.40;;;-7.65;100.00;95752.88;648046;213;31658;-74
2022/03/08 05:52:22;;;;;;;4.62;2.05;;;-7.90;1.40;;;-7.67;100.00;95753.58;647307;212;31590;-75
2022/03/08 05:55:09;;;;;;;4.90;1.70;;;-7.90;1.40;;;-7.65;100.00;95754.61;645600;216;31626;-74
2022/03/08 05:57:51;;;;;;;2.60;1.75;;;-7.90;1.40;;;-7.52;100.00;95764.40;647151;216;31560;-73
2022/03/08 06:00:33;;;;;;;1.55;1.45;;;-7.90;1.40;;;-7.44;100.00;95767.70;645890;216;31520;-75
2022/03/08 06:03:24;;;;;;;1.87;1.65;;;-7.70;1.40;;;-7.27;100.00;95754.97;649346;216;31526;-75
2022/03/08 06:06:09;;;;;;;6.03;1.60;;;-7.50;1.40;;;-7.17;100.00;95759.67;647179;216;31625;-75
2022/03/08 06:08:52;;;;;;;4.50;2.00;;;-7.40;1.40;;;-6.93;100.00;95761.41;618839;222;31850;-75
2022/03/08 06:11:34;;;;;;;2.70;1.70;;;-7.10;1.40;;;-6.67;100.00;95760.12;621656;226;32233;-75
2022/03/08 06:14:21;;;;;;;5.70;1.92;;;-6.80;1.40;;;-6.50;100.00;95758.87;646695;216;31633;-75
2022/03/08 06:17:10;;;;;;;2.85;2.53;;;-6.70;1.40;;;-6.37;100.00;95758.72;648064;216;31611;-76
2022/03/08 06:19:59;;;;;;;1.67;1.10;;;-6.60;1.40;;;-6.22;100.00;95769.81;637534;221;31698;-75
2022/03/08 06:22:46;;;;;;;3.40;1.45;;;-6.60;1.40;;;-6.18;100.00;95761.83;645742;216;31649;-75
2022/03/08 06:25:35;;;;;;;9.00;2.30;;;-6.60;1.40;;;-6.15;100.00;95760.86;620746;222;32365;-75
2022/03/08 06:28:21;;;;;;;5.95;3.10;;;-6.60;1.40;;;-6.04;100.00;95758.44;653514;212;31385;-75
2022/03/08 06:31:08;;;;;;;1.70;1.52;;;-6.50;1.40;;;-5.93;100.00;95761.68;647539;212;31666;-77
2022/03/08 06:35:51;;;;;;;8.02;2.17;;;-6.40;1.40;;;-5.73;100.00;95761.88;647872;212;31562;-75
2022/03/08 06:38:33;;;;;;;1.40;1.30;;;-6.20;1.40;;;-5.63;100.00;95764.80;647415;216;31880;-76
2022/03/08 06:41:16;;;;;;;2.83;2.15;;;-6.10;1.40;;;-5.52;100.00;95764.31;646756;212;31752;-76
2022/03/08 06:43:58;;;;;;;3.40;2.80;;;-6.10;1.40;;;-5.44;100.00;95766.37;647604;212;31572;-76
2022/03/08 06:46:44;;;;;;;4.30;2.75;;;-6.00;1.40;;;-5.36;100.00;95769.90;648056;216;31540;-76
2022/03/08 06:49:22;;;;;;;3.58;2.70;;;-5.90;1.40;;;-5.26;100.00;95767.89;647888;216;31535;-76
2022/03/08 06:52:04;;;;;;;4.43;2.35;;;-5.80;1.40;;;-5.19;100.00;95767.05;647169;216;31561;-76
2022/03/08 06:54:46;;;;;;;3.03;2.58;;;-5.70;1.40;;;-5.12;100.00;95767.91;618907;222;31932;-75
2022/03/08 06:57:27;;;;;;;3.45;2.47;;;-5.70;1.40;;;-5.04;100.00;95772.86;647526;216;31575;-76
2022/03/08 07:00:12;;;;;;;2.47;1.77;;;-5.50;1.40;;;-4.87;100.00;95775.98;620418;226;32035;-75
2022/03/08 07:02:54;;;;;;;3.78;1.92;;;-5.20;1.40;;;-4.67;100.00;95775.19;648422;216;42181;-76
2022/03/08 07:05:42;;;;;;;6.30;2.20;;;-5.10;1.40;;;-4.50;100.00;95770.81;645574;212;31945;-74
2022/03/08 07:08:24;;;;;;;2.83;2.62;;;-4.90;1.40;;;-4.36;100.00;95776.35;635039;212;31766;-75
2022/03/08 07:11:06;;;;;;;5.95;2.67;;;-4.80;1.40;;;-4.16;100.00;95772.21;645704;216;42169;-74
2022/03/08 07:13:54;;;;;;;3.95;2.65;;;-4.60;1.40;;;-3.91;100.00;95779.77;621662;222;42799;-75
2022/03/08 07:16:35;;;;;;;3.22;2.10;;;-4.30;1.40;;;-3.66;100.00;95778.43;647500;216;42179;-75
2022/03/08 07:19:17;;;;;;;3.17;2.47;;;-3.90;1.40;;;-3.33;100.00;95772.77;648408;216;31571;-75
2022/03/08 07:21:59;;;;;;;4.00;2.55;;;-3.80;1.40;;;-3.35;100.00;95769.53;646621;212;42172;-76
2022/03/08 07:24:41;;;;;;;4.40;3.05;;;-3.60;1.40;;;-3.16;100.00;95771.83;647249;216;31663;-75
2022/03/08 07:27:22;;;;;;;4.18;3.70;;;-3.40;1.40;;;-3.03;100.00;95777.22;646791;216;31776;-75
2022/03/08 07:30:06;;;;;;;2.97;2.65;;;-3.20;1.40;;;-2.66;100.00;95779.59;648212;212;31573;-75
2022/03/08 07:32:49;;;;;;;4.03;3.33;;;-3.00;1.40;;;-2.52;100.00;95773.68;647319;213;31564;-75
2022/03/08 07:35:54;;;;;;;5.18;2.90;;;-2.80;1.40;;;-2.21;100.00;95764.13;632634;218;42429;-75
2022/03/08 07:38:36;;;;;;;3.62;3.42;;;-2.60;1.40;;;-2.36;100.00;95770.34;647317;216;31564;-75
2022/03/08 07:41:17;;;;;;;5.60;3.37;;;-2.70;1.40;;;-2.34;100.00;95768.31;646134;212;31533;-75
2022/03/08 07:44:01;;;;;;;5.32;3.20;;;-2.50;1.40;;;-2.24;100.00;95768.36;646875;212;32191;-74
2022/03/08 07:46:41;;;;;;;4.90;3.12;;;-2.30;1.40;;;-1.94;100.00;95762.24;620446;226;32234;-76
2022/03/08 07:49:24;;;;;;;3.83;2.58;;;-2.10;1.40;;;-1.60;100.00;95766.42;647738;216;31564;-75
2022/03/08 07:52:05;;;;;;;2.95;2.75;;;-1.80;1.40;;;-0.96;100.00;95769.33;619052;226;32000;-75
2022/03/08 07:54:49;;;;;;;3.45;3.20;;;-1.40;1.40;;;-0.82;100.00;95773.47;647065;216;31610;-76
2022/03/08 07:57:31;;;;;;;3.33;3.03;;;-1.00;1.40;;;-0.76;96.65;95765.55;646863;216;31613;-75
2022/03/08 08:00:13;;;;;;;3.60;3.30;;;-1.00;1.40;;;-0.21;96.11;95765.22;647217;212;32286;-75
2022/03/08 08:02:55;;;;;;;3.53;2.70;;;-0.50;1.40;;;0.19;95.84;95767.95;647156;212;33198;-76
2022/03/08 08:05:43;;;;;;;3.83;3.15;;;-0.10;1.40;;;0.50;92.75;95763.56;647590;216;31587;-75
2022/03/08 08:08:31;;;;;;;3.67;3.37;;;0.30;1.40;;;0.66;89.36;95768.04;646304;216;31790;-75
2022/03/08 08:11:12;;;;;;;4.35;3.50;;;0.40;1.40;;;1.05;87.69;95771.52;642393;215;31563;-75
2022/03/08 08:13:54;;;;;;;3.05;2.85;;;0.50;1.40;;;1.02;85.80;95773.59;618731;226;31977;-75
2022/03/08 08:16:36;;;;;;;3.58;3.25;;;0.70;1.40;;;0.96;85.85;95771.71;648247;216;31752;-75
2022/03/08 08:19:23;;;;;;;4.93;3.65;;;0.60;1.40;;;1.26;84.72;95764.85;647268;216;31547;-74
2022/03/08 08:22:05;;;;;;;5.05;3.50;;;0.80;1.40;;;1.36;82.77;95762.50;647327;212;42167;-74
2022/03/08 08:24:46;;;;;;;3.70;3.10;;;1.10;1.40;;;1.44;82.17;95759.27;647189;212;42225;-74
2022/03/08 08:27:28;;;;;;;5.82;3.67;;;1.10;1.40;;;1.14;81.11;95761.47;647902;212;42186;-74
2022/03/08 08:30:11;;;;;;;5.15;3.85;;;0.70;1.40;;;1.30;82.54;95759.88;646342;216;31578;-74
2022/03/08 08:32:53;;;;;;;3.90;3.15;;;1.00;1.40;;;1.29;80.89;95767.14;647138;216;31578;-74
2022/03/08 08:35:51;;;;;;;3.92;3.42;;;1.20;1.40;;;1.69;79.38;95762.98;647417;212;31573;-75
2022/03/08 08:38:33;;;;;;;4.20;2.85;;;1.30;1.40;;;1.48;78.96;95762.08;646792;216;31799;-75
2022/03/08 08:41:14;;;;;;;2.90;2.70;;;1.20;1.40;;;1.52;80.03;95759.45;646946;216;31549;-75
2022/03/08 08:43:56;;;;;;;5.10;3.10;;;1.40;1.40;;;1.51;78.71;95759.00;642952;215;31602;-75
2022/03/08 08:46:37;;;;;;;5.03;3.20;;;1.30;1.40;;;1.28;78.56;95761.58;647995;212;32090;-74
2022/03/08 08:49:19;;;;;;;4.10;3.40;;;1.10;1.40;;;1.79;78.09;95755.84;618831;226;32249;-75
2022/03/08 08:52:01;;;;;;;5.43;2.78;;;1.70;1.40;;;2.06;75.89;95754.84;619922;222;32384;-75
2022/03/08 08:54:46;;;;;;;3.10;2.72;;;1.90;1.40;;;1.79;73.51;95753.81;646553;212;31556;-75
2022/03/08 08:57:25;;;;;;;4.07;3.17;;;1.60;1.40;;;2.00;74.21;95755.87;647365;212;32159;-75
2022/03/08 09:00:08;;;;;;;3.30;3.00;;;1.80;1.40;;;2.48;72.82;95751.34;647023;216;31542;-75
2022/03/08 09:02:52;;;;;;;4.12;2.70;;;2.60;1.40;;;3.21;69.04;95750.98;619367;222;42424;-74
2022/03/08 09:05:31;;;;;;;2.97;2.20;;;3.30;1.40;;;3.04;66.96;95752.09;647933;216;42938;-74
2022/03/08 09:08:15;;;;;;;3.22;2.35;;;3.10;1.40;;;3.36;65.36;95753.97;619378;226;32242;-76
2022/03/08 09:10:57;;;;;;;6.68;3.80;;;3.40;1.40;;;5.01;60.31;95753.69;620177;226;35979;-74
2022/03/08 09:13:38;;;;;;;4.00;3.35;;;5.90;1.40;;;5.53;55.61;95739.12;646452;212;32943;-75
2022/03/08 09:16:20;;;;;;;4.33;3.40;;;6.70;1.40;;;6.28;54.34;95735.61;618995;222;32723;-75
2022/03/08 09:19:02;;;;;;;4.20;3.25;;;7.10;1.40;;;5.82;50.76;95742.19;646877;216;42196;-75
2022/03/08 09:21:44;;;;;;;4.37;2.90;;;7.00;1.40;;;7.11;51.88;95730.17;647304;216;31569;-75
2022/03/08 09:24:25;;;;;;;3.20;2.90;;;8.00;1.40;;;5.42;48.92;95738.17;647095;216;31611;-75
2022/03/08 09:27:13;;;;;;;2.50;2.30;;;5.20;1.40;;;6.27;48.14;95730.88;647136;216;31587;-73
2022/03/08 09:30:01;;;;;;;4.67;3.30;;;7.20;1.40;;;7.78;49.51;95722.19;646316;216;31684;-74
2022/03/08 09:32:43;;;;;;;2.90;2.60;;;8.40;1.40;;;10.03;46.45;95710.72;646401;212;31723;-76
2022/03/08 09:35:52;;;;;;;3.17;2.53;;;11.50;1.40;;;10.50;39.65;95715.11;646997;212;42203;-76
2022/03/08 09:38:34;;;;;;;4.10;3.37;;;9.00;1.40;;;10.00;41.15;95716.89;619226;226;33600;-76
2022/03/08 09:41:18;;;;;;;4.32;3.42;;;10.00;1.40;;;8.54;42.51;95729.61;648041;216;31598;-77
2022/03/08 09:44:14;;;;;;;4.85;3.05;;;7.40;1.40;;;7.59;41.92;95725.84;650540;212;31630;-75
2022/03/08 09:46:56;;;;;;;2.37;2.17;;;7.70;1.40;;;8.39;44.40;95727.09;655537;212;22514;-74
2022/03/08 09:49:42;;;;;;;3.58;3.10;;;9.40;1.40;;;7.65;41.85;95734.85;623503;222;42560;-76
2022/03/08 09:52:28;;;;;;;4.00;2.83;;;7.30;1.40;;;6.68;43.78;95737.60;650464;212;31553;-75
2022/03/08 09:55:16;;;;;;;4.30;3.00;;;7.20;1.40;;;9.65;42.62;95727.14;633207;221;31653;-75
2022/03/08 09:58:05;;;;;;;4.22;3.83;;;11.20;1.40;;;10.31;41.08;95723.25;647809;216;35726;-74
2022/03/08 10:00:45;;;;;;;4.10;2.92;;;10.30;1.40;;;11.09;37.88;95719.70;647042;212;31711;-74
2022/03/08 10:03:36;;;;;;;3.83;3.37;;;10.90;1.40;;;9.98;38.31;95722.02;646493;216;31571;-74
2022/03/08 10:06:20;;;;;;;3.40;2.80;;;10.50;1.40;;;10.48;38.01;95719.20;616542;225;32007;-76
2022/03/08 10:09:11;;;;;;;5.68;3.80;;;11.00;1.40;;;12.26;35.54;95712.98;646607;212;31893;-73
2022/03/08 10:11:53;;;;;;;4.75;3.30;;;11.20;1.40;;;11.74;35.24;95712.53;648710;212;31595;-76
2022/03/08 10:14:39;;;;;;;3.28;2.55;;;9.20;1.40;;;10.60;37.74;95709.20;648081;212;31583;-75
2022/03/08 10:17:32;;;;;;;4.45;3.00;;;9.80;1.40;;;9.74;38.12;95714.27;646153;212;31580;-76
2022/03/08 10:20:13;;;;;;;4.85;3.25;;;9.40;1.40;;;9.97;37.46;95707.28;646660;216;31552;-74
2022/03/08 10:22:55;;;;;;;6.50;2.70;;;9.50;1.40;;;10.29;37.51;95710.50;648858;216;42192;-75
2022/03/08 10:25:41;;;;;;;3.80;3.03;;;10.40;1.40;;;10.24;38.70;95707.17;622610;222;31889;-77
2022/03/08 10:28:31;;;;;;;3.58;2.78;;;10.30;1.40;;;10.86;38.22;95699.86;633860;217;42433;-76
2022/03/08 10:31:20;;;;;;;5.80;3.40;;;10.70;1.40;;;9.44;37.30;95703.16;644156;213;32072;-75
2022/03/08 10:35:53;;;;;;;7.05;2.50;;;9.10;1.40;;;10.55;36.72;95696.31;648858;216;42322;-75
2022/03/08 10:38:33;;;;;;;3.60;2.85;;;10.40;1.40;;;11.41;35.69;95700.00;647191;216;31562;-75
2022/03/08 10:41:19;;;;;;;3.30;2.47;;;10.60;1.40;;;11.22;34.96;95700.08;650376;216;31507;-75
2022/03/08 10:44:06;;;;;;;2.50;2.30;;;10.20;1.40;;;10.14;36.50;95703.69;636145;213;31586;-76
2022/03/08 10:47:05;;;;;;;2.85;2.55;;;10.10;1.40;;;9.09;36.37;95705.27;647114;216;31569;-74
2022/03/08 11:00:20;;;;;;;2.92;2.20;;;10.60;1.40;;;13.65;32.18;95686.30;648177;216;31540;-75
2022/03/08 11:03:01;;;;;;;3.10;2.27;;;12.20;1.40;;;9.61;34.97;95697.86;632716;218;31681;-75
2022/03/08 11:05:44;;;;;;;2.00;1.90;;;8.90;1.40;;;10.15;35.29;95685.80;646629;216;31627;-76
2022/03/08 11:08:28;;;;;;;2.58;2.30;;;10.30;1.40;;;10.78;34.83;95684.75;647728;216;31612;-75
2022/03/08 11:11:10;;;;;;;2.40;2.20;;;10.10;1.40;;;12.13;31.47;95687.27;648076;216;31827;-76
2022/03/08 11:13:52;;;;;;;3.20;2.47;;;10.10;1.40;;;9.73;34.37;95688.34;645972;216;31580;-75
2022/03/08 11:16:33;;;;;;;2.80;2.60;;;9.50;1.40;;;10.37;33.74;95687.82;646320;216;31832;-75
2022/03/08 11:19:15;;;;;;;3.17;2.20;;;8.80;1.40;;;10.45;34.03;95676.05;646539;212;32172;-74
2022/03/08 11:21:57;;;;;;;2.22;1.80;;;10.30;1.40;;;9.90;35.47;95685.84;619550;222;31882;-76
2022/03/08 11:24:39;;;;;;;2.42;2.22;;;9.90;1.40;;;12.38;31.99;95679.56;646384;212;31575;-74
2022/03/08 11:27:27;;;;;;;3.58;2.30;;;10.50;1.40;;;14.86;29.89;95677.88;646600;216;31543;-74
2022/03/08 11:30:10;;;;;;;3.10;2.25;;;12.50;1.40;;;14.50;30.69;95671.64;647759;216;31673;-75
2022/03/08 11:36:04;;;;;;;3.22;2.30;;;11.10;99.90;;;14.75;30.77;95669.48;647145;212;32455;-74
2022/03/08 11:39:00;;;;;;;2.20;2.00;;;14.30;99.90;;;17.67;26.44;95657.52;646582;216;31915;-76
2022/03/08 11:41:42;;;;;;;2.85;2.25;;;14.20;99.90;;;12.09;30.20;95677.80;648304;214;31813;-75
2022/03/08 11:44:36;;;;;;;2.10;1.60;;;10.60;99.90;;;14.08;29.65;95667.08;646269;212;32637;-75
2022/03/08 11:47:18;;;;;;;2.97;2.05;;;11.80;99.90;;;16.82;28.50;95664.11;646790;216;31661;-74
2022/03/08 11:49:59;;;;;;;2.00;1.80;;;14.80;99.90;;;17.20;28.20;95662.79;647526;212;32153;-76
2022/03/08 11:52:41;;;;;;;2.90;2.30;;;15.20;99.90;;;12.29;28.26;95670.38;647210;212;31572;-75
2022/03/08 11:55:25;;;;;;;3.00;1.87;;;10.20;99.90;;;11.83;29.48;95663.30;645811;216;31546;-75
2022/03/08 11:58:10;;;;;;;2.10;1.90;;;10.10;99.90;;;14.18;28.78;95660.36;647248;216;42154;-74
2022/03/08 12:00:59;;;;;;;2.50;1.95;;;13.10;99.90;;;16.14;26.48;95649.42;646532;216;42165;-77
2022/03/08 12:03:41;;;;;;;2.97;2.40;;;12.40;99.90;;;12.20;28.77;95654.05;647774;212;42160;-76
2022/03/08 12:06:30;;;;;;;3.12;1.80;;;10.90;99.90;;;15.81;27.66;95639.91;617480;226;32676;-75
2022/03/08 12:09:18;;;;;;;3.08;2.22;;;14.80;99.90;;;12.69;27.49;95655.25;646889;216;31523;-75